createdAt,value
2023-03-02T00:02:39.631Z,101459.24
2023-03-02T00:07:36.030Z,101451.73
2023-03-02T00:12:30.250Z,101449.16
2023-03-02T00:17:27.972Z,101453.40
2023-03-02T00:22:20.836Z,101456.31
2023-03-02T00:27:13.479Z,101453.70
2023-03-02T00:32:06.692Z,101455.81
2023-03-02T00:37:00.113Z,101452.41
2023-03-02T00:41:52.827Z,101457.91
2023-03-02T00:46:46.617Z,101451.76
2023-03-02T00:51:39.738Z,101450.98
2023-03-02T00:56:32.824Z,101450.48
2023-03-02T01:01:26.024Z,101451.94
2023-03-02T01:06:22.408Z,101445.86
2023-03-02T01:11:20.778Z,101441.36
2023-03-02T01:16:13.901Z,101440.61
2023-03-02T01:21:12.932Z,101429.05
2023-03-02T01:26:07.573Z,101429.20
2023-03-02T01:31:01.391Z,101429.73
2023-03-02T01:35:54.146Z,101427.50
2023-03-02T01:40:46.847Z,101428.59
2023-03-02T01:45:49.015Z,101428.41
2023-03-02T01:50:46.568Z,101429.93
2023-03-02T01:55:40.527Z,101427.88
2023-03-02T02:00:38.329Z,101419.65
2023-03-02T02:05:31.027Z,101413.82
2023-03-02T02:10:23.734Z,101410.70
2023-03-02T02:15:19.000Z,101409.22
2023-03-02T02:20:29.745Z,101410.81
2023-03-02T02:25:45.552Z,101415.73
2023-03-02T02:30:41.947Z,101415.91
2023-03-02T02:35:38.640Z,101415.86
2023-03-02T02:40:55.014Z,101413.27
2023-03-02T02:45:55.063Z,101413.67
2023-03-02T02:50:48.615Z,101412.35
2023-03-02T02:55:43.335Z,101411.55
2023-03-02T03:00:37.520Z,101409.34
2023-03-02T03:05:30.264Z,101402.89
2023-03-02T03:10:23.003Z,101398.10
2023-03-02T03:15:15.960Z,101396.08
2023-03-02T03:20:10.863Z,101396.11
2023-03-02T03:25:08.496Z,101396.34
2023-03-02T03:30:01.970Z,101394.04
2023-03-02T03:34:55.627Z,101385.23
2023-03-02T03:39:52.578Z,101383.89
2023-03-02T03:44:45.686Z,101383.48
2023-03-02T03:49:38.478Z,101386.92
2023-03-02T03:54:31.981Z,101386.75
2023-03-02T03:59:27.105Z,101385.45
2023-03-02T04:04:34.683Z,101384.48
2023-03-02T04:09:37.870Z,101383.58
2023-03-02T04:14:31.830Z,101374.23
2023-03-02T04:19:25.302Z,101374.20
2023-03-02T04:24:23.410Z,101378.39
2023-03-02T04:29:19.050Z,101376.44
2023-03-02T04:34:13.727Z,101379.44
2023-03-02T04:39:09.492Z,101375.29
2023-03-02T04:44:02.252Z,101371.73
2023-03-02T04:48:55.721Z,101368.75
2023-03-02T04:53:48.372Z,101371.99
2023-03-02T04:58:41.040Z,101373.56
2023-03-02T05:03:34.064Z,101375.33
2023-03-02T05:08:26.729Z,101379.89
2023-03-02T05:13:19.415Z,101380.73
2023-03-02T05:18:13.252Z,101389.60
2023-03-02T05:23:09.875Z,101388.66
2023-03-02T05:28:04.514Z,101390.38
2023-03-02T05:32:57.226Z,101397.25
2023-03-02T05:37:50.581Z,101395.79
2023-03-02T05:42:43.903Z,101397.92
2023-03-02T05:47:38.942Z,101404.23
2023-03-02T05:52:41.943Z,101406.13
2023-03-02T05:57:35.356Z,101415.30
2023-03-02T06:02:28.074Z,101420.65
2023-03-02T06:07:20.800Z,101429.39
2023-03-02T06:12:13.504Z,101430.06
2023-03-02T06:17:06.228Z,101428.74
2023-03-02T06:21:59.563Z,101431.94
2023-03-02T06:26:55.257Z,101436.66
2023-03-02T06:31:48.148Z,101443.09
2023-03-02T06:36:40.996Z,101449.98
2023-03-02T06:41:34.886Z,101445.88
2023-03-02T06:46:27.719Z,101447.73
2023-03-02T06:51:20.404Z,101451.80
2023-03-02T06:56:13.153Z,101450.59
2023-03-02T07:01:07.897Z,101456.46
2023-03-02T07:06:01.096Z,101455.64
2023-03-02T07:10:53.828Z,101460.97
2023-03-02T07:15:46.644Z,101459.64
2023-03-02T07:20:39.634Z,101451.59
2023-03-02T07:25:32.682Z,101449.17
2023-03-02T07:30:26.591Z,101442.80
2023-03-02T07:35:19.549Z,101439.30
2023-03-02T07:40:13.610Z,101448.30
2023-03-02T07:45:07.715Z,101440.35
2023-03-02T07:50:00.326Z,101439.58
2023-03-02T07:54:53.095Z,101438.89
2023-03-02T07:59:46.255Z,101440.67
2023-03-02T08:04:38.927Z,101433.63
2023-03-02T08:09:31.588Z,101434.50
2023-03-02T08:14:24.264Z,101433.15
2023-03-02T08:19:16.961Z,101426.03
2023-03-02T08:24:10.732Z,101416.52
2023-03-02T08:29:03.519Z,101410.83
2023-03-02T08:33:56.209Z,101407.57
2023-03-02T08:38:50.326Z,101408.92
2023-03-02T08:43:43.422Z,101408.48
2023-03-02T08:48:36.153Z,101408.73
2023-03-02T08:53:31.997Z,101409.93
2023-03-02T08:58:24.672Z,101409.71
2023-03-02T09:03:17.872Z,101412.13
2023-03-02T09:08:10.717Z,101407.36
2023-03-02T09:13:03.669Z,101414.50
2023-03-02T09:17:56.361Z,101410.80
2023-03-02T09:22:51.116Z,101408.55
2023-03-02T09:27:43.770Z,101410.78
2023-03-02T09:32:36.667Z,101405.90
2023-03-02T09:37:32.938Z,101402.41
2023-03-02T09:43:23.016Z,101405.92
2023-03-02T09:48:32.552Z,101395.04
2023-03-02T09:53:25.190Z,101387.85
2023-03-02T09:58:21.683Z,101386.21
2023-03-02T10:03:20.074Z,101386.84
2023-03-02T10:08:16.449Z,101384.32
2023-03-02T10:13:29.969Z,101384.85
2023-03-02T10:18:29.573Z,101378.38
2023-03-02T10:23:34.664Z,101377.91
2023-03-02T10:28:34.166Z,101372.14
2023-03-02T10:33:28.665Z,101374.23
2023-03-02T10:38:26.248Z,101372.65
2023-03-02T10:43:21.262Z,101368.89
2023-03-02T10:48:15.412Z,101365.17
2023-03-02T10:53:09.647Z,101359.83
2023-03-02T10:58:21.170Z,101357.50
2023-03-02T11:03:24.230Z,101354.42
2023-03-02T11:08:31.754Z,101348.92
2023-03-02T11:13:29.270Z,101346.17
2023-03-02T11:18:26.739Z,101341.42
2023-03-02T11:23:36.108Z,101337.83
2023-03-02T11:29:07.345Z,101332.33
2023-03-02T11:34:35.267Z,101330.07
2023-03-02T11:39:46.388Z,101329.27
2023-03-02T11:44:46.764Z,101334.48
2023-03-02T11:49:45.055Z,101340.27
2023-03-02T11:54:45.979Z,101335.06
2023-03-02T11:59:39.760Z,101332.83
2023-03-02T12:04:35.940Z,101328.02
2023-03-02T12:09:36.578Z,101321.78
2023-03-02T12:14:42.585Z,101319.77
2023-03-02T12:19:45.272Z,101315.60
2023-03-02T12:24:43.243Z,101308.52
2023-03-02T12:29:46.500Z,101306.13
2023-03-02T12:34:45.532Z,101300.27
2023-03-02T12:40:35.522Z,101296.98
2023-03-02T12:45:43.438Z,101294.48
2023-03-02T12:50:40.848Z,101290.45
2023-03-02T12:55:34.438Z,101281.77
2023-03-02T13:00:30.843Z,101276.44
2023-03-02T13:05:35.865Z,101270.56
2023-03-02T13:10:37.284Z,101269.16
2023-03-02T13:15:30.479Z,101267.75
2023-03-02T13:20:25.562Z,101263.32
2023-03-02T13:25:28.606Z,101259.52
2023-03-02T13:30:30.857Z,101254.11
2023-03-02T13:35:27.196Z,101252.40
2023-03-02T13:40:22.861Z,101250.98
2023-03-02T13:45:30.759Z,101246.73
2023-03-02T13:50:25.209Z,101239.92
2023-03-02T13:55:19.593Z,101235.00
2023-03-02T14:00:16.739Z,101228.95
2023-03-02T14:05:21.889Z,101226.95
2023-03-02T14:10:17.247Z,101219.15
2023-03-02T14:15:15.557Z,101204.72
2023-03-02T14:20:12.093Z,101198.73
2023-03-02T14:25:04.975Z,101186.13
2023-03-02T14:29:58.194Z,101176.88
2023-03-02T14:34:50.896Z,101172.54
2023-03-02T14:39:54.212Z,101171.41
2023-03-02T14:44:49.716Z,101169.81
2023-03-02T14:49:42.374Z,101162.84
2023-03-02T14:54:45.012Z,101162.94
2023-03-02T14:59:37.689Z,101161.36
2023-03-02T15:04:30.369Z,101159.52
2023-03-02T15:09:23.080Z,101156.48
2023-03-02T15:14:15.740Z,101151.42
2023-03-02T15:19:09.653Z,101146.30
2023-03-02T15:24:02.365Z,101143.98
2023-03-02T15:28:55.477Z,101143.75
2023-03-02T15:33:48.387Z,101142.15
2023-03-02T15:38:41.198Z,101142.45
2023-03-02T15:43:34.290Z,101140.11
2023-03-02T15:48:27.069Z,101136.65
2023-03-02T15:53:19.825Z,101138.06
2023-03-02T15:58:12.511Z,101133.62
2023-03-02T16:03:05.626Z,101136.84
2023-03-02T16:07:58.369Z,101131.95
2023-03-02T16:12:51.011Z,101138.90
2023-03-02T16:17:43.866Z,101134.64
2023-03-02T16:22:36.514Z,101135.50
2023-03-02T16:27:30.377Z,101140.61
2023-03-02T16:32:23.135Z,101133.79
2023-03-02T16:37:15.846Z,101135.36
2023-03-02T16:42:08.526Z,101127.38
2023-03-02T16:47:01.209Z,101127.70
2023-03-02T16:51:58.864Z,101124.66
2023-03-02T16:56:51.859Z,101125.75
2023-03-02T17:01:44.764Z,101128.04
2023-03-02T17:06:38.049Z,101127.27
2023-03-02T17:11:32.350Z,101128.66
2023-03-02T17:16:26.501Z,101134.36
2023-03-02T17:21:19.250Z,101136.95
2023-03-02T17:26:12.050Z,101134.70
2023-03-02T17:31:04.854Z,101128.95
2023-03-02T17:35:57.547Z,101122.70
2023-03-02T17:40:50.220Z,101122.16
2023-03-02T17:45:42.845Z,101120.52
2023-03-02T17:51:11.881Z,101123.31
2023-03-02T17:56:04.596Z,101119.52
2023-03-02T18:00:57.274Z,101129.14
2023-03-02T18:05:50.382Z,101121.20
2023-03-02T18:10:43.777Z,101111.65
2023-03-02T18:15:36.537Z,101108.33
2023-03-02T18:20:29.309Z,101107.98
2023-03-02T18:25:22.240Z,101110.98
2023-03-02T18:30:15.483Z,101106.31
2023-03-02T18:35:09.298Z,101112.69
2023-03-02T18:40:02.584Z,101108.59
2023-03-02T18:44:55.282Z,101114.05
2023-03-02T18:49:47.968Z,101121.13
2023-03-02T18:54:42.248Z,101120.70
2023-03-02T18:59:36.862Z,101116.70
2023-03-02T19:04:30.881Z,101114.80
2023-03-02T19:09:24.746Z,101116.09
2023-03-02T19:14:17.661Z,101109.06
2023-03-02T19:19:10.964Z,101102.27
2023-03-02T19:24:03.959Z,101102.95
2023-03-02T19:28:56.616Z,101099.15
2023-03-02T19:33:49.247Z,101103.51
2023-03-02T19:38:44.516Z,101100.27
2023-03-02T19:43:38.713Z,101097.25
2023-03-02T19:48:32.197Z,101101.35
2023-03-02T19:53:25.273Z,101100.50
2023-03-02T19:58:19.872Z,101103.66
2023-03-02T20:03:13.091Z,101104.84
2023-03-02T20:08:07.773Z,101099.33
2023-03-02T20:13:00.977Z,101106.77
2023-03-02T20:17:53.961Z,101104.64
2023-03-02T20:22:46.866Z,101107.79
2023-03-02T20:27:39.915Z,101107.70
2023-03-02T20:32:32.705Z,101105.69
2023-03-02T20:37:26.138Z,101101.40
2023-03-02T20:42:18.868Z,101096.23
2023-03-02T20:47:15.065Z,101092.81
2023-03-02T20:52:10.283Z,101085.11
2023-03-02T20:57:05.584Z,101078.30
2023-03-02T21:01:59.729Z,101075.59
2023-03-02T21:06:53.506Z,101072.86
2023-03-02T21:11:47.580Z,101069.02
2023-03-02T21:16:43.319Z,101063.86
2023-03-02T21:21:42.064Z,101064.51
2023-03-02T21:26:36.513Z,101062.73
2023-03-02T21:31:29.290Z,101056.83
2023-03-02T21:36:25.056Z,101051.05
2023-03-02T21:41:18.474Z,101041.86
2023-03-02T21:46:15.994Z,101039.67
2023-03-02T21:51:09.096Z,101037.91
2023-03-02T21:56:01.875Z,101032.27
2023-03-02T22:00:54.854Z,101031.05
2023-03-02T22:05:49.963Z,101028.27
2023-03-02T22:11:10.957Z,101029.09
2023-03-02T22:16:44.318Z,101029.00
2023-03-02T22:22:00.362Z,101025.55
2023-03-02T22:32:55.557Z,101020.21
2023-03-02T22:38:12.903Z,101018.94
2023-03-02T22:43:32.045Z,101022.26
2023-03-02T22:48:33.567Z,101020.40
2023-03-02T22:54:00.024Z,101018.42
2023-03-02T22:58:53.576Z,101007.32
2023-03-02T23:03:48.783Z,101008.80
2023-03-02T23:08:41.447Z,101001.91
2023-03-02T23:13:42.093Z,100996.20
2023-03-02T23:18:34.731Z,100994.66
2023-03-02T23:23:29.257Z,100992.40
2023-03-02T23:28:22.289Z,100981.83
2023-03-02T23:33:15.986Z,100979.73
2023-03-02T23:38:09.756Z,100975.77
2023-03-02T23:43:24.549Z,100968.98
2023-03-02T23:48:34.149Z,100969.64
2023-03-02T23:53:51.710Z,100965.75
